EEL RIVER CAMP CA US current weather conditions

sailwx.info

Wind from 175 at 6 knots gusting 11

Air temperature 32.2° C
Dewpoint 15.2° C

Last reported at 2017-Jun-24 23:28 UTC.
Time now 2017-Jun-25 00:24 UTC

Location: N 40°08' W 123°49'.
View on Google Maps.

See reports from other nearby stations

  
Tides and Currents Weather Stations Pressure Air Temp Water Temp Dewpoint Dewpoint Depression Visibility Wind Speed Wind Dir Waves Ship Positions
date/time (UTC)wind fromknots sea level pressurealtimeterstation pressurevisibilityair tempwater tempwave heightnotes
2017-Jun-24 23:28 175 6 gusting 11 32.2
2017-Jun-24 22:28 172 6 gusting 10 35.0
2017-Jun-24 21:28 167 4 gusting 9 37.2
2017-Jun-24 20:28 147 2 gusting 6 36.1
2017-Jun-24 19:28 348 1 gusting 6 34.4
2017-Jun-24 18:28 101 2 gusting 5 31.1
2017-Jun-24 17:28 132 1 gusting 4 28.3
2017-Jun-24 16:28 139 0 gusting 3 25.0
2017-Jun-24 15:28 161 22.2
2017-Jun-24 14:28 023 16.7
2017-Jun-24 13:28 304 13.9
2017-Jun-24 12:28 304 13.9
2017-Jun-24 11:28 304 15.0
2017-Jun-24 10:28 304 15.6
2017-Jun-24 09:28 304 16.1
2017-Jun-24 08:28 304 16.7
2017-Jun-24 07:28 304 17.8
2017-Jun-24 06:28 060 18.9
2017-Jun-24 05:28 013 20.0
2017-Jun-24 04:28 320 22.2
2017-Jun-24 03:28 345 1 gusting 3 26.1
2017-Jun-24 02:28 346 1 gusting 6 32.8
2017-Jun-24 01:28 186 2 gusting 6 35.6
2017-Jun-24 00:28 181 4 gusting 8 35.6
2017-Jun-23 23:28 162 5 gusting 10 36.1
2017-Jun-23 22:28 176 5 gusting 9 36.1
2017-Jun-23 21:28 206 5 gusting 10 36.1
2017-Jun-23 20:28 182 4 gusting 8 35.6
2017-Jun-23 19:28 159 2 gusting 6 33.9
2017-Jun-23 18:28 152 2 gusting 6 31.7
2017-Jun-23 17:28 347 1 gusting 3 28.3
2017-Jun-23 16:28 145 24.4
2017-Jun-23 15:28 180 0 gusting 1 20.6
2017-Jun-23 14:28 266 15.0
2017-Jun-23 13:28 265 12.2
2017-Jun-23 12:28 265 11.7
2017-Jun-23 11:28 265 12.2
2017-Jun-23 10:28 265 13.3
2017-Jun-23 09:28 339 14.4
2017-Jun-23 08:28 334 15.0
2017-Jun-23 07:28 348 1 gusting 2 16.1
2017-Jun-23 06:28 326 1 gusting 2 17.8
2017-Jun-23 05:28 318 0 gusting 3 19.4
2017-Jun-23 04:28 323 0 gusting 3 21.1
2017-Jun-23 03:28 320 0 gusting 10 25.6
2017-Jun-23 02:28 059 4 gusting 13 31.7
2017-Jun-23 01:28 054 6 gusting 14 33.9
2017-Jun-23 00:28 061 6 gusting 16 36.1